Time;durP1;ratioP1;P1;durP2;ratioP2;P2;SDS_P1;SDS_P2;PMS_P1;PMS_P2;Temp;Humidity;BMP_temperature;BMP_pressure;BME280_temperature;BME280_humidity;BME280_pressure;Samples;Min_cycle;Max_cycle;Signal;HPM_P1;HPM_P2
2024/03/16 00:00:43;;;;;;;15.68;12.60;;;12.80;99.90;;;;;;5043731;28;20351;-77
2024/03/16 00:03:09;;;;;;;19.00;12.95;;;12.80;99.90;;;;;;5041570;28;20037;-77
2024/03/16 00:05:36;;;;;;;23.98;14.75;;;12.70;99.90;;;;;;5023577;28;20021;-77
2024/03/16 00:08:03;;;;;;;20.73;13.63;;;12.70;99.90;;;;;;5045313;28;20021;-77
2024/03/16 00:10:29;;;;;;;20.27;13.90;;;12.70;99.90;;;;;;5041579;28;20029;-77
2024/03/16 00:12:55;;;;;;;17.60;14.38;;;12.70;99.90;;;;;;5028052;28;20028;-77
2024/03/16 00:15:21;;;;;;;23.92;14.52;;;12.80;99.90;;;;;;5026985;28;20102;-77
2024/03/16 00:17:46;;;;;;;22.25;14.70;;;12.70;99.90;;;;;;5042430;28;20029;-77
2024/03/16 00:20:13;;;;;;;22.38;14.82;;;12.70;99.90;;;;;;5045412;28;20029;-77
2024/03/16 00:22:39;;;;;;;21.40;15.85;;;12.70;99.90;;;;;;5043904;28;20025;-77
2024/03/16 00:25:06;;;;;;;19.42;14.25;;;12.70;99.90;;;;;;5042908;28;20029;-77
2024/03/16 00:27:33;;;;;;;18.83;14.77;;;12.70;99.90;;;;;;5043179;28;20330;-77
2024/03/16 00:29:59;;;;;;;22.15;14.02;;;12.70;99.90;;;;;;5043268;28;20496;-80
2024/03/16 00:32:25;;;;;;;21.05;13.70;;;12.70;99.90;;;;;;5024839;28;20056;-80
2024/03/16 00:34:50;;;;;;;21.17;14.57;;;12.70;99.90;;;;;;5043651;28;20021;-80
2024/03/16 00:37:16;;;;;;;18.88;15.88;;;12.70;99.90;;;;;;5041188;28;20032;-79
2024/03/16 00:39:44;;;;;;;27.20;18.63;;;12.70;99.90;;;;;;5041251;28;20029;-80
2024/03/16 00:42:10;;;;;;;21.48;16.85;;;12.70;99.90;;;;;;5041423;28;20021;-80
2024/03/16 00:44:37;;;;;;;23.17;17.40;;;12.70;99.90;;;;;;5044659;28;20025;-80
2024/03/16 00:47:02;;;;;;;26.63;17.77;;;12.70;99.90;;;;;;5041075;28;20025;-80
2024/03/16 00:49:28;;;;;;;21.85;17.63;;;12.70;99.90;;;;;;5030703;28;20052;-80
2024/03/16 00:51:54;;;;;;;20.35;16.10;;;12.70;99.90;;;;;;5031555;28;20049;-80
2024/03/16 00:54:20;;;;;;;22.55;16.60;;;12.70;99.90;;;;;;5043607;28;20025;-80
2024/03/16 00:56:51;;;;;;;23.55;15.43;;;12.70;99.90;;;;;;5041852;28;20021;-81
2024/03/16 00:59:17;;;;;;;24.53;15.63;;;12.60;99.90;;;;;;5033674;28;20487;-80
2024/03/16 01:01:44;;;;;;;26.05;16.05;;;12.60;99.90;;;;;;5041862;28;20278;-80
2024/03/16 01:04:10;;;;;;;22.15;15.52;;;12.60;99.90;;;;;;5025234;28;20075;-80
2024/03/16 01:06:36;;;;;;;20.65;16.17;;;12.60;99.90;;;;;;5032414;28;20116;-80
2024/03/16 01:09:03;;;;;;;20.83;17.00;;;12.60;99.90;;;;;;5024476;28;20552;-80
2024/03/16 01:11:29;;;;;;;24.10;16.80;;;12.60;99.90;;;;;;5046278;28;20158;-80
2024/03/16 01:13:55;;;;;;;21.75;16.70;;;12.60;99.90;;;;;;5032382;28;20060;-80
2024/03/16 01:16:20;;;;;;;23.83;18.42;;;12.60;99.90;;;;;;5032129;28;20049;-80
2024/03/16 01:18:46;;;;;;;27.73;17.58;;;12.60;99.90;;;;;;5025686;28;20021;-80
2024/03/16 01:21:12;;;;;;;20.90;16.73;;;12.60;99.90;;;;;;5031194;28;20040;-80
2024/03/16 01:23:38;;;;;;;23.10;18.15;;;12.60;99.90;;;;;;5043815;28;20100;-80
2024/03/16 01:26:05;;;;;;;27.73;17.80;;;12.60;99.90;;;;;;5026501;28;20408;-80
2024/03/16 01:28:32;;;;;;;23.70;18.15;;;12.60;99.90;;;;;;5043745;28;20491;-80
2024/03/16 01:30:58;;;;;;;22.65;17.83;;;12.60;99.90;;;;;;5030870;28;20388;-80
2024/03/16 01:33:25;;;;;;;27.45;17.95;;;12.60;99.90;;;;;;5043213;28;20033;-80
2024/03/16 01:35:52;;;;;;;27.40;21.33;;;12.60;99.90;;;;;;5040792;28;20029;-80
2024/03/16 01:38:18;;;;;;;25.52;18.15;;;12.60;99.90;;;;;;5024824;28;20079;-80
2024/03/16 01:40:44;;;;;;;26.05;20.88;;;12.60;99.90;;;;;;5041078;28;20029;-80
2024/03/16 01:43:14;;;;;;;27.25;22.33;;;12.60;99.90;;;;;;5024171;28;20018;-80
2024/03/16 01:45:40;;;;;;;26.33;19.42;;;12.60;99.90;;;;;;5041301;28;20036;-80
2024/03/16 01:48:10;;;;;;;27.67;19.35;;;12.60;99.90;;;;;;5024028;28;20463;-80
2024/03/16 01:50:44;;;;;;;27.67;19.85;;;12.60;99.90;;;;;;5031466;28;20029;-80
2024/03/16 01:53:10;;;;;;;29.08;19.05;;;12.60;99.90;;;;;;5043750;28;20112;-80
2024/03/16 01:55:37;;;;;;;25.85;19.35;;;12.60;99.90;;;;;;5043758;28;20087;-80
2024/03/16 01:58:04;;;;;;;30.15;23.65;;;12.60;99.90;;;;;;5042693;28;20052;-80
2024/03/16 02:00:33;;;;;;;34.72;23.48;;;12.60;99.90;;;;;;5041036;28;20025;-80
2024/03/16 02:02:59;;;;;;;30.20;21.13;;;12.50;99.90;;;;;;5044763;28;20554;-80
2024/03/16 02:05:26;;;;;;;29.88;22.50;;;12.60;99.90;;;;;;5033102;28;20473;-80
2024/03/16 02:07:52;;;;;;;30.13;20.88;;;12.60;99.90;;;;;;5033326;28;20025;-80
2024/03/16 02:10:18;;;;;;;25.80;19.02;;;12.50;99.90;;;;;;5041379;28;20029;-79
2024/03/16 02:12:47;;;;;;;26.67;19.35;;;12.50;99.90;;;;;;5048613;28;20032;-80
2024/03/16 02:15:13;;;;;;;33.55;23.27;;;12.50;99.90;;;;;;5031584;28;20059;-80
2024/03/16 02:17:40;;;;;;;30.73;23.92;;;12.50;99.90;;;;;;5043561;28;20488;-80
2024/03/16 02:20:14;;;;;;;35.65;23.20;;;12.50;99.90;;;;;;5022767;28;20084;-80
2024/03/16 02:22:40;;;;;;;30.27;22.60;;;12.50;99.90;;;;;;5039120;28;20037;-80
2024/03/16 02:25:07;;;;;;;31.77;23.77;;;12.50;99.90;;;;;;5031687;28;20438;-80
2024/03/16 02:27:32;;;;;;;30.60;23.52;;;12.40;99.90;;;;;;5039495;28;20033;-80
2024/03/16 02:29:58;;;;;;;41.90;29.67;;;12.50;99.90;;;;;;5022681;28;20082;-80
2024/03/16 02:32:24;;;;;;;39.70;29.33;;;12.40;99.90;;;;;;5042288;28;20025;-80
2024/03/16 02:34:50;;;;;;;39.83;27.10;;;12.40;99.90;;;;;;5039245;28;20033;-80
2024/03/16 02:37:18;;;;;;;42.25;29.40;;;12.40;99.90;;;;;;5024378;28;20534;-80
2024/03/16 02:39:44;;;;;;;40.80;26.08;;;12.50;99.90;;;;;;5037324;28;20018;-80
2024/03/16 02:42:10;;;;;;;37.28;27.85;;;12.40;99.90;;;;;;5032836;28;20439;-80
2024/03/16 02:44:36;;;;;;;39.63;29.30;;;12.40;99.90;;;;;;5039172;28;20021;-80
2024/03/16 02:47:01;;;;;;;38.95;27.10;;;12.40;99.90;;;;;;5041943;28;20040;-80
2024/03/16 02:49:27;;;;;;;37.28;27.45;;;12.40;99.90;;;;;;5031465;28;20081;-80
2024/03/16 02:51:53;;;;;;;41.55;29.67;;;12.40;99.90;;;;;;5030700;28;20428;-80
2024/03/16 02:54:19;;;;;;;35.83;26.83;;;12.40;99.90;;;;;;5041006;28;20037;-80
2024/03/16 02:56:45;;;;;;;35.45;28.92;;;12.40;99.90;;;;;;5041027;28;20045;-80
2024/03/16 02:59:12;;;;;;;37.63;27.27;;;12.40;99.90;;;;;;5040754;28;20044;-80
2024/03/16 03:01:38;;;;;;;37.17;26.00;;;12.40;99.90;;;;;;5041454;28;20021;-80
2024/03/16 03:04:05;;;;;;;41.38;30.35;;;12.30;99.90;;;;;;5030763;28;20435;-80
2024/03/16 03:06:32;;;;;;;39.65;27.45;;;12.40;99.90;;;;;;5022018;28;20500;-80
2024/03/16 03:08:57;;;;;;;37.40;28.85;;;12.30;99.90;;;;;;5042208;28;20480;-80
2024/03/16 03:11:25;;;;;;;40.10;30.02;;;12.40;99.90;;;;;;5039356;28;20021;-80
2024/03/16 03:13:51;;;;;;;37.95;28.50;;;12.40;99.90;;;;;;5042460;28;20017;-80
2024/03/16 03:16:19;;;;;;;41.25;29.65;;;12.30;99.90;;;;;;5038846;28;20553;-80
2024/03/16 03:18:50;;;;;;;44.35;32.10;;;12.30;99.90;;;;;;5039017;28;20109;-80
2024/03/16 03:21:17;;;;;;;44.37;34.03;;;12.30;99.90;;;;;;5041707;28;20543;-80
2024/03/16 03:23:42;;;;;;;44.40;31.85;;;12.30;99.90;;;;;;5045634;28;20444;-80
2024/03/16 03:26:09;;;;;;;45.20;35.38;;;12.30;99.90;;;;;;5042595;28;20049;-80
2024/03/16 03:28:35;;;;;;;45.08;33.08;;;12.30;99.90;;;;;;5024595;28;20072;-80
2024/03/16 03:31:02;;;;;;;50.53;36.53;;;12.30;99.90;;;;;;5045416;28;20108;-80
2024/03/16 03:33:28;;;;;;;52.53;39.22;;;12.30;99.90;;;;;;5033217;28;20040;-80
2024/03/16 03:35:54;;;;;;;56.42;40.70;;;12.30;99.90;;;;;;5044991;28;20108;-80
2024/03/16 03:38:20;;;;;;;58.72;39.95;;;12.40;99.90;;;;;;5035167;28;20026;-80
2024/03/16 03:40:45;;;;;;;53.13;39.15;;;12.30;99.90;;;;;;5043942;28;20028;-80
2024/03/16 03:43:19;;;;;;;53.78;40.03;;;12.30;99.90;;;;;;5043632;28;20152;-80
2024/03/16 03:48:24;;;;;;;55.88;40.30;;;12.30;99.90;;;;;;5043384;28;20090;-80
2024/03/16 03:50:56;;;;;;;49.03;36.90;;;12.40;99.90;;;;;;5031837;28;20163;-80
2024/03/16 03:53:26;;;;;;;57.17;40.38;;;12.40;99.90;;;;;;5041956;28;20392;-80
2024/03/16 03:55:52;;;;;;;58.90;40.80;;;12.30;99.90;;;;;;5045261;28;20060;-80
2024/03/16 03:58:19;;;;;;;54.47;36.55;;;12.30;99.90;;;;;;5035908;28;20021;-80
2024/03/16 04:00:49;;;;;;;49.03;37.17;;;12.30;99.90;;;;;;5041945;28;20435;-80
2024/03/16 04:03:15;;;;;;;60.05;43.70;;;12.30;99.90;;;;;;5041943;28;20017;-80
2024/03/16 04:05:42;;;;;;;70.20;47.08;;;12.30;99.90;;;;;;5028463;28;20277;-80
2024/03/16 04:08:07;;;;;;;65.03;47.47;;;12.30;99.90;;;;;;5041795;28;20508;-80
2024/03/16 04:10:34;;;;;;;71.35;46.20;;;12.30;99.90;;;;;;5044711;28;20064;-80
2024/03/16 04:13:01;;;;;;;63.63;44.90;;;12.30;99.90;;;;;;5042211;28;20064;-80
2024/03/16 04:15:27;;;;;;;63.05;42.13;;;12.30;99.90;;;;;;5044303;28;20026;-80
2024/03/16 04:17:53;;;;;;;63.28;42.80;;;12.30;99.90;;;;;;5042768;28;20526;-80
2024/03/16 04:20:19;;;;;;;55.92;40.70;;;12.30;99.90;;;;;;5024556;28;20034;-80
2024/03/16 04:22:45;;;;;;;62.25;43.88;;;12.30;99.90;;;;;;5043115;28;20021;-80
2024/03/16 04:25:14;;;;;;;59.40;43.25;;;12.30;99.90;;;;;;5033655;28;20029;-80
2024/03/16 04:27:44;;;;;;;59.33;42.47;;;12.30;99.90;;;;;;5041523;28;20048;-80
2024/03/16 04:30:11;;;;;;;61.60;45.35;;;12.30;99.90;;;;;;5033741;28;20068;-80
2024/03/16 04:32:37;;;;;;;59.58;43.58;;;12.30;99.90;;;;;;5033468;28;20049;-80
2024/03/16 04:35:04;;;;;;;57.80;41.65;;;12.20;99.90;;;;;;5044078;28;20079;-80
2024/03/16 04:37:30;;;;;;;68.50;47.88;;;12.30;99.90;;;;;;5017074;28;20026;-80
2024/03/16 04:39:56;;;;;;;65.88;46.05;;;12.30;99.90;;;;;;5042157;28;20018;-80
2024/03/16 04:42:22;;;;;;;63.40;45.38;;;12.30;99.90;;;;;;5044167;28;20021;-80
2024/03/16 04:44:48;;;;;;;62.75;44.80;;;12.30;99.90;;;;;;5041319;28;20083;-80
2024/03/16 04:47:14;;;;;;;67.45;46.63;;;12.30;99.90;;;;;;5044716;28;20447;-80
2024/03/16 04:49:40;;;;;;;68.13;49.45;;;12.20;99.90;;;;;;5044521;28;20618;-80
2024/03/16 04:52:07;;;;;;;69.82;47.75;;;12.20;99.90;;;;;;5044400;28;20017;-80
2024/03/16 04:54:33;;;;;;;68.50;49.00;;;12.20;99.90;;;;;;5041242;28;20388;-80
2024/03/16 04:56:58;;;;;;;68.22;49.95;;;12.20;99.90;;;;;;5025919;28;20025;-80
2024/03/16 04:59:24;;;;;;;69.75;48.13;;;12.20;99.90;;;;;;5032131;28;20056;-80
2024/03/16 05:01:50;;;;;;;68.95;47.55;;;12.10;99.90;;;;;;5044749;28;20019;-80
2024/03/16 05:04:16;;;;;;;68.53;49.85;;;12.20;99.90;;;;;;5044759;28;20029;-80
2024/03/16 05:06:41;;;;;;;71.47;50.75;;;12.10;99.90;;;;;;5028696;28;20026;-80
2024/03/16 05:09:09;;;;;;;71.70;50.90;;;12.10;99.90;;;;;;5020626;28;20039;-80
2024/03/16 05:11:38;;;;;;;72.28;51.88;;;12.00;99.90;;;;;;5021483;28;20056;-80
2024/03/16 05:14:06;;;;;;;77.57;53.25;;;12.00;99.90;;;;;;5042839;28;20056;-80
2024/03/16 05:16:35;;;;;;;70.90;53.90;;;12.00;99.90;;;;;;5041580;28;20112;-80
2024/03/16 05:19:02;;;;;;;70.47;52.72;;;12.00;99.90;;;;;;5043339;28;20021;-80
2024/03/16 05:21:32;;;;;;;71.22;50.45;;;11.90;99.90;;;;;;5044023;28;20055;-80
2024/03/16 05:23:59;;;;;;;67.00;50.85;;;11.90;99.90;;;;;;5024847;28;20017;-80
2024/03/16 05:26:25;;;;;;;67.93;49.53;;;11.90;99.90;;;;;;5041464;28;20152;-80
2024/03/16 05:28:51;;;;;;;65.75;50.65;;;11.90;99.90;;;;;;5043012;28;20024;-80
2024/03/16 05:31:17;;;;;;;76.80;53.80;;;11.90;99.90;;;;;;5040783;28;20080;-80
2024/03/16 05:33:43;;;;;;;71.13;50.13;;;11.90;99.90;;;;;;5025668;28;20017;-80
2024/03/16 05:36:14;;;;;;;72.72;52.85;;;11.90;99.90;;;;;;5025823;28;20037;-80
2024/03/16 05:38:43;;;;;;;79.30;55.53;;;11.80;99.90;;;;;;5040487;28;20025;-80
2024/03/16 05:41:09;;;;;;;74.88;50.33;;;11.80;99.90;;;;;;5043166;28;20082;-80
2024/03/16 05:43:35;;;;;;;82.05;52.25;;;11.80;99.90;;;;;;5022105;28;20021;-80
2024/03/16 05:46:01;;;;;;;85.72;52.95;;;11.70;99.90;;;;;;5030267;28;20499;-80
2024/03/16 05:48:27;;;;;;;75.20;54.33;;;11.60;99.90;;;;;;5043898;28;20115;-80
2024/03/16 05:50:53;;;;;;;76.97;56.30;;;11.70;99.90;;;;;;5043813;28;20033;-80
2024/03/16 05:53:20;;;;;;;73.80;55.55;;;11.70;99.90;;;;;;5042814;28;20396;-80
2024/03/16 05:55:46;;;;;;;70.38;50.67;;;11.70;99.90;;;;;;5043431;28;20033;-80
2024/03/16 05:58:11;;;;;;;72.45;50.75;;;11.70;99.90;;;;;;5043441;28;20452;-80
2024/03/16 06:00:40;;;;;;;64.65;50.70;;;11.70;99.90;;;;;;5023478;28;20056;-80
2024/03/16 06:03:06;;;;;;;65.35;48.72;;;11.70;99.90;;;;;;5041601;28;20509;-80
2024/03/16 06:05:38;;;;;;;64.38;47.92;;;11.70;99.90;;;;;;5041653;28;20103;-80
2024/03/16 06:08:05;;;;;;;64.25;49.58;;;11.70;99.90;;;;;;5039529;28;20031;-80
2024/03/16 06:10:31;;;;;;;60.80;45.33;;;11.70;99.90;;;;;;5045647;28;20550;-80
2024/03/16 06:12:58;;;;;;;64.32;47.03;;;11.70;99.90;;;;;;5041313;28;20032;-80
2024/03/16 06:15:24;;;;;;;66.50;52.10;;;11.70;99.90;;;;;;5023201;28;20035;-80
2024/03/16 06:17:50;;;;;;;64.85;51.33;;;11.70;99.90;;;;;;5041896;28;20025;-80
2024/03/16 06:20:16;;;;;;;65.35;48.75;;;11.80;99.90;;;;;;5042102;28;20404;-80
2024/03/16 06:22:44;;;;;;;70.57;51.10;;;11.70;99.90;;;;;;5032569;28;20115;-80
2024/03/16 06:25:12;;;;;;;71.82;51.92;;;11.80;99.90;;;;;;5022277;28;20396;-80
2024/03/16 06:27:49;;;;;;;68.38;47.60;;;11.80;99.90;;;;;;5032830;28;20112;-80
2024/03/16 06:30:19;;;;;;;62.13;47.05;;;11.80;99.90;;;;;;5041313;28;20472;-80
2024/03/16 06:33:05;;;;;;;65.78;48.03;;;11.80;99.90;;;;;;5031186;28;20370;-80
2024/03/16 06:35:34;;;;;;;65.05;47.88;;;11.80;99.90;;;;;;5039470;28;20381;-81
2024/03/16 06:38:00;;;;;;;62.03;46.85;;;11.80;99.90;;;;;;5032660;28;20021;-80
2024/03/16 06:40:25;;;;;;;58.85;45.53;;;11.80;99.90;;;;;;5039363;28;20096;-80
2024/03/16 06:42:51;;;;;;;59.00;44.70;;;11.90;99.90;;;;;;5033042;28;20029;-81
2024/03/16 06:45:17;;;;;;;59.95;44.47;;;11.90;99.90;;;;;;5029662;28;20028;-80
2024/03/16 06:47:43;;;;;;;65.03;46.72;;;11.90;99.90;;;;;;5042275;28;20028;-80
2024/03/16 06:50:10;;;;;;;69.65;46.78;;;11.90;99.90;;;;;;5024953;28;20167;-80
2024/03/16 06:52:36;;;;;;;64.93;43.08;;;12.00;99.90;;;;;;5041754;28;20037;-80
2024/03/16 06:55:03;;;;;;;65.63;47.72;;;12.00;99.90;;;;;;5040324;28;20041;-80
2024/03/16 06:57:29;;;;;;;67.97;49.15;;;12.00;99.90;;;;;;5033384;28;20021;-80
2024/03/16 06:59:55;;;;;;;66.40;49.88;;;12.00;99.90;;;;;;5044858;28;20520;-81
2024/03/16 07:02:21;;;;;;;61.05;46.03;;;12.10;99.90;;;;;;5044534;28;20025;-81
2024/03/16 07:04:50;;;;;;;61.38;46.63;;;12.10;99.90;;;;;;5046783;28;20029;-80
2024/03/16 07:07:16;;;;;;;59.88;44.83;;;12.10;99.90;;;;;;5035573;28;20031;-80
2024/03/16 07:09:42;;;;;;;64.75;46.90;;;12.20;99.90;;;;;;5045094;28;20029;-80
2024/03/16 07:12:10;;;;;;;65.03;47.85;;;12.20;99.90;;;;;;5042371;28;20076;-80
2024/03/16 07:14:36;;;;;;;61.00;43.72;;;12.20;99.90;;;;;;5042787;28;20053;-80
2024/03/16 07:17:02;;;;;;;60.40;43.47;;;12.30;99.90;;;;;;5030029;28;20126;-80
2024/03/16 07:19:28;;;;;;;58.08;43.90;;;12.30;99.90;;;;;;5024445;28;20032;-80
2024/03/16 07:21:54;;;;;;;61.45;47.35;;;12.40;99.90;;;;;;5043249;28;20427;-80
2024/03/16 07:24:19;;;;;;;69.18;46.63;;;12.40;99.90;;;;;;5038508;28;20503;-80
2024/03/16 07:26:45;;;;;;;64.00;46.45;;;12.50;99.90;;;;;;5032884;28;20021;-80
2024/03/16 07:29:11;;;;;;;65.53;46.42;;;12.50;99.90;;;;;;5021335;28;20078;-80
2024/03/16 07:31:37;;;;;;;67.75;49.22;;;12.50;99.90;;;;;;5040024;28;20500;-80
2024/03/16 07:34:03;;;;;;;70.07;49.08;;;12.60;99.90;;;;;;5023762;28;20025;-80
2024/03/16 07:36:30;;;;;;;67.63;46.97;;;12.60;99.90;;;;;;5030819;28;20091;-80
2024/03/16 07:38:57;;;;;;;74.32;52.72;;;12.70;99.90;;;;;;5040749;28;20022;-81
2024/03/16 07:41:23;;;;;;;77.53;53.47;;;12.70;99.90;;;;;;5023760;28;20476;-80
2024/03/16 07:43:49;;;;;;;83.97;59.72;;;12.80;99.90;;;;;;5039739;28;20099;-80
2024/03/16 07:46:15;;;;;;;90.85;63.38;;;12.80;99.90;;;;;;5030256;28;20029;-79
2024/03/16 07:48:41;;;;;;;112.55;80.40;;;12.80;99.90;;;;;;5042245;28;20502;-83
2024/03/16 07:51:08;;;;;;;105.00;76.30;;;12.90;99.90;;;;;;5043888;28;20036;-81
2024/03/16 07:53:35;;;;;;;123.82;84.93;;;12.90;99.90;;;;;;5021240;28;20261;-82
2024/03/16 07:56:04;;;;;;;129.80;89.43;;;13.00;99.90;;;;;;5042430;28;20681;-82
2024/03/16 07:58:30;;;;;;;125.47;88.32;;;13.00;99.90;;;;;;5020733;28;20132;-83
2024/03/16 08:00:56;;;;;;;114.47;81.93;;;13.00;99.90;;;;;;5042682;28;20844;-83
2024/03/16 08:03:21;;;;;;;127.07;92.13;;;13.10;99.90;;;;;;5038971;28;20105;-84
2024/03/16 08:05:47;;;;;;;127.28;88.45;;;13.10;99.90;;;;;;5041255;28;20388;-83
2024/03/16 08:08:13;;;;;;;126.88;82.35;;;13.10;99.90;;;;;;5039532;28;20026;-82
2024/03/16 08:10:38;;;;;;;146.35;97.43;;;13.10;99.90;;;;;;5039384;28;20465;-81
2024/03/16 08:13:04;;;;;;;149.10;94.70;;;13.10;99.90;;;;;;5030919;28;20029;-82
2024/03/16 08:15:30;;;;;;;150.02;97.43;;;13.10;99.90;;;;;;5040328;28;20032;-82
2024/03/16 08:17:57;;;;;;;148.77;96.32;;;13.10;99.90;;;;;;5039513;28;20104;-81
2024/03/16 08:20:23;;;;;;;146.50;94.18;;;13.20;99.90;;;;;;5044580;28;20072;-82
2024/03/16 08:22:53;;;;;;;134.40;87.55;;;13.30;99.90;;;;;;5040960;28;20117;-86
2024/03/16 08:25:22;;;;;;;136.93;90.40;;;13.30;99.90;;;;;;5038975;28;20026;-81
2024/03/16 08:27:51;;;;;;;136.02;90.70;;;13.40;99.90;;;;;;5044728;28;20451;-83
2024/03/16 08:30:17;;;;;;;146.40;92.70;;;13.40;99.90;;;;;;5023521;28;20033;-82
2024/03/16 08:32:43;;;;;;;143.48;96.60;;;13.50;99.90;;;;;;5030447;28;20028;-81
2024/03/16 08:35:09;;;;;;;143.18;94.90;;;13.50;99.90;;;;;;5028864;28;20033;-81
2024/03/16 08:37:34;;;;;;;149.85;91.78;;;13.60;99.90;;;;;;5040380;28;20100;-82
2024/03/16 08:40:11;;;;;;;143.85;92.72;;;13.60;99.90;;;;;;5040231;28;20031;-80
2024/03/16 08:42:39;;;;;;;146.75;92.05;;;13.50;99.90;;;;;;5041969;28;20024;-80
2024/03/16 08:45:07;;;;;;;143.68;95.90;;;13.50;99.90;;;;;;5038404;28;20029;-81
2024/03/16 08:47:33;;;;;;;137.00;89.22;;;13.60;99.90;;;;;;5029031;28;20083;-80
2024/03/16 08:49:59;;;;;;;128.82;84.78;;;13.70;99.90;;;;;;5043428;28;20029;-80
2024/03/16 08:52:26;;;;;;;145.10;90.45;;;13.70;99.90;;;;;;5038400;28;20075;-80
2024/03/16 08:54:55;;;;;;;141.95;91.85;;;13.70;99.90;;;;;;5040642;28;20032;-80
2024/03/16 08:57:22;;;;;;;141.57;90.15;;;13.70;99.90;;;;;;5037652;28;20049;-80
2024/03/16 08:59:48;;;;;;;138.60;92.22;;;13.80;99.90;;;;;;5031458;28;20025;-80
2024/03/16 09:02:14;;;;;;;134.30;87.78;;;13.80;99.90;;;;;;5019226;28;20116;-80
2024/03/16 09:04:40;;;;;;;142.52;92.43;;;13.90;99.90;;;;;;5023310;28;20026;-80
2024/03/16 09:07:05;;;;;;;134.00;83.70;;;13.90;99.90;;;;;;5022391;28;20139;-80
2024/03/16 09:09:31;;;;;;;131.13;85.03;;;14.00;99.90;;;;;;5036569;28;20112;-80
2024/03/16 09:11:57;;;;;;;123.40;81.80;;;14.10;99.90;;;;;;5040138;28;20028;-80
2024/03/16 09:14:23;;;;;;;131.45;86.32;;;14.20;99.90;;;;;;5028401;28;20048;-80
2024/03/16 09:16:48;;;;;;;132.40;86.07;;;14.20;99.90;;;;;;5041127;28;20059;-81
2024/03/16 09:19:14;;;;;;;143.38;87.45;;;14.30;99.90;;;;;;5038837;28;20067;-80
2024/03/16 09:21:40;;;;;;;134.05;89.55;;;14.30;99.90;;;;;;5039030;28;20653;-80
2024/03/16 09:24:06;;;;;;;134.13;91.60;;;14.30;99.90;;;;;;5029571;28;20032;-80
2024/03/16 09:26:32;;;;;;;138.90;95.63;;;14.30;99.90;;;;;;5037380;28;20025;-80
2024/03/16 09:28:58;;;;;;;134.30;85.38;;;14.30;99.90;;;;;;5029646;28;20646;-80
2024/03/16 09:31:27;;;;;;;134.73;86.05;;;14.40;99.90;;;;;;5027470;28;20043;-80
2024/03/16 09:33:53;;;;;;;138.45;87.05;;;14.40;99.90;;;;;;5030719;28;20408;-80
2024/03/16 09:36:18;;;;;;;133.23;85.28;;;14.50;99.90;;;;;;5019119;28;20036;-80
2024/03/16 09:38:44;;;;;;;129.13;88.25;;;14.50;99.90;;;;;;5042210;28;20075;-80
2024/03/16 09:41:18;;;;;;;131.88;88.72;;;14.50;99.90;;;;;;5022201;28;20035;-80
2024/03/16 09:43:45;;;;;;;132.93;87.68;;;14.60;99.90;;;;;;5036851;28;20022;-80
2024/03/16 09:46:11;;;;;;;127.13;87.25;;;14.60;99.90;;;;;;5037543;28;20030;-80
2024/03/16 09:48:38;;;;;;;137.68;89.85;;;14.60;99.90;;;;;;5013440;28;20123;-80
2024/03/16 09:51:04;;;;;;;125.13;85.25;;;14.70;99.90;;;;;;5022071;28;20029;-80
2024/03/16 09:53:32;;;;;;;135.23;91.15;;;14.60;99.90;;;;;;5008204;28;20021;-80
2024/03/16 09:56:10;;;;;;;128.35;85.00;;;14.70;99.90;;;;;;5020828;28;20040;-80
2024/03/16 09:58:42;;;;;;;142.15;91.30;;;14.80;99.90;;;;;;4999214;28;20026;-80
2024/03/16 10:01:27;;;;;;;127.93;87.50;;;15.00;99.90;;;;;;5025149;28;20397;-80
2024/03/16 10:03:52;;;;;;;124.57;84.60;;;15.00;99.90;;;;;;5028840;28;20047;-81
2024/03/16 10:06:19;;;;;;;129.65;85.22;;;15.10;99.90;;;;;;5022716;28;20105;-80
2024/03/16 10:08:44;;;;;;;136.10;84.72;;;15.20;99.90;;;;;;5026941;28;20032;-80
2024/03/16 10:11:12;;;;;;;131.25;84.20;;;15.20;99.90;;;;;;5028324;28;20029;-81
2024/03/16 10:13:52;;;;;;;124.25;82.72;;;15.30;99.90;;;;;;5011458;28;20029;-80
2024/03/16 10:16:20;;;;;;;127.97;82.57;;;15.30;99.90;;;;;;5029524;28;20028;-80
2024/03/16 10:18:46;;;;;;;115.85;80.85;;;15.30;99.90;;;;;;5030445;28;20088;-80
2024/03/16 10:21:11;;;;;;;112.75;74.93;;;15.40;99.90;;;;;;5012101;28;20025;-80
2024/03/16 10:23:37;;;;;;;116.88;75.47;;;15.50;91.20;;;;;;5030236;28;20025;-80
2024/03/16 10:26:08;;;;;;;118.13;77.55;;;15.40;91.90;;;;;;5011737;28;20037;-80
2024/03/16 10:28:37;;;;;;;112.20;77.90;;;15.50;92.30;;;;;;5028820;28;20028;-80
2024/03/16 10:31:03;;;;;;;119.72;77.20;;;15.50;97.20;;;;;;5010521;28;20176;-80
2024/03/16 10:33:29;;;;;;;116.85;77.63;;;15.50;99.70;;;;;;5031772;28;20105;-80
2024/03/16 10:35:59;;;;;;;110.25;76.47;;;15.80;99.90;;;;;;5032829;28;20025;-80
2024/03/16 10:38:26;;;;;;;116.45;70.90;;;15.70;76.30;;;;;;5014615;28;20049;-80
2024/03/16 10:40:59;;;;;;;108.20;69.97;;;15.70;80.30;;;;;;5015552;28;20389;-80
2024/03/16 10:43:31;;;;;;;109.47;71.15;;;15.70;54.20;;;;;;5034313;28;20026;-80
2024/03/16 10:45:58;;;;;;;113.55;73.13;;;15.70;70.30;;;;;;5035842;28;20022;-81
2024/03/16 10:48:25;;;;;;;120.53;79.80;;;15.70;90.00;;;;;;5021952;28;20144;-77
2024/03/16 10:50:53;;;;;;;114.78;77.68;;;15.80;91.60;;;;;;5033763;28;20651;-78
2024/03/16 10:53:20;;;;;;;109.40;73.03;;;15.80;76.50;;;;;;5038374;28;20514;-77
2024/03/16 10:55:47;;;;;;;113.75;78.65;;;16.00;80.60;;;;;;5037954;28;20492;-77
2024/03/16 10:58:25;;;;;;;108.47;75.40;;;16.20;85.60;;;;;;5055516;28;20079;-77
2024/03/16 11:01:02;;;;;;;120.15;76.22;;;16.30;88.90;;;;;;5051170;28;20017;-77
2024/03/16 11:03:31;;;;;;;117.00;76.60;;;16.20;69.80;;;;;;5055774;28;20056;-77
2024/03/16 11:06:01;;;;;;;111.60;75.78;;;16.20;66.10;;;;;;5055595;28;20052;-78
2024/03/16 11:08:46;;;;;;;113.22;77.97;;;16.10;58.50;;;;;;5056060;28;20056;-78
2024/03/16 11:11:17;;;;;;;107.13;72.97;;;16.30;93.10;;;;;;5055517;28;20060;-78
2024/03/16 11:14:05;;;;;;;96.28;66.82;;;16.60;87.50;;;;;;5037955;28;20037;-78
2024/03/16 11:16:34;;;;;;;107.43;71.30;;;16.80;18.50;;;;;;5055730;28;20594;-78
2024/03/16 11:19:07;;;;;;;93.72;66.18;;;16.90;39.60;;;;;;5039742;28;20028;-82
2024/03/16 11:21:38;;;;;;;102.82;69.72;;;17.00;30.00;;;;;;5042650;28;20025;-81
2024/03/16 11:24:13;;;;;;;101.03;67.82;;;17.10;38.10;;;;;;5024425;28;20017;-81
2024/03/16 11:26:40;;;;;;;96.30;67.85;;;17.10;20.10;;;;;;5042814;28;20026;-81
2024/03/16 11:29:15;;;;;;;102.75;69.40;;;17.10;3.20;;;;;;5034021;28;20025;-81
2024/03/16 11:31:44;;;;;;;108.55;74.07;;;17.10;29.90;;;;;;5020583;28;20022;-81
2024/03/16 11:34:19;;;;;;;106.28;74.45;;;17.20;38.00;;;;;;5020205;28;20044;-81
2024/03/16 11:36:49;;;;;;;105.88;75.75;;;17.10;15.30;;;;;;5036729;28;20156;-81
2024/03/16 11:39:24;;;;;;;110.28;75.07;;;17.20;52.90;;;;;;5031376;28;20025;-81
2024/03/16 11:41:53;;;;;;;105.20;69.95;;;17.30;46.50;;;;;;5038522;28;20026;-81
2024/03/16 11:44:19;;;;;;;110.07;71.53;;;17.30;43.90;;;;;;5038336;28;20022;-81
2024/03/16 11:46:46;;;;;;;101.95;67.82;;;17.40;24.70;;;;;;5032293;28;20029;-81
2024/03/16 11:49:16;;;;;;;100.85;65.22;;;17.40;12.30;;;;;;5031348;28;20038;-81
2024/03/16 11:51:42;;;;;;;90.43;62.72;;;17.30;1.00;;;;;;5039090;28;20029;-81
2024/03/16 11:54:08;;;;;;;95.38;64.63;;;17.20;1.00;;;;;;5041749;28;20020;-81
2024/03/16 11:56:37;;;;;;;96.30;69.07;;;17.20;14.90;;;;;;5039507;28;20497;-81
2024/03/16 11:59:08;;;;;;;89.30;63.28;;;17.10;9.30;;;;;;5032892;28;20325;-81
2024/03/16 12:01:39;;;;;;;92.90;64.53;;;17.10;1.00;;;;;;5042337;28;20022;-81
2024/03/16 12:04:07;;;;;;;100.13;66.90;;;17.10;13.30;;;;;;5038519;28;20485;-81
2024/03/16 12:06:36;;;;;;;94.15;66.32;;;17.10;20.20;;;;;;5039209;28;20037;-81
2024/03/16 12:09:03;;;;;;;101.88;66.93;;;17.20;32.10;;;;;;5038710;28;20313;-81
2024/03/16 12:11:29;;;;;;;90.28;64.82;;;17.30;16.90;;;;;;5038137;28;20448;-81
2024/03/16 12:14:24;;;;;;;94.60;63.58;;;17.50;34.00;;;;;;5046086;28;20087;-81
2024/03/16 12:16:50;;;;;;;94.93;63.97;;;17.60;19.20;;;;;;5024445;28;20123;-81
2024/03/16 12:19:17;;;;;;;95.20;63.80;;;17.80;1.00;;;;;;5041607;28;20025;-81
2024/03/16 12:21:44;;;;;;;87.03;59.38;;;17.90;4.90;;;;;;5042348;28;20705;-81
2024/03/16 12:24:14;;;;;;;74.97;53.03;;;17.90;1.00;;;;;;5039069;28;20017;-81
2024/03/16 12:26:45;;;;;;;83.28;53.83;;;17.90;1.00;;;;;;5041090;28;20029;-81